Time;durP1;ratioP1;P1;durP2;ratioP2;P2;SDS_P1;SDS_P2;PMS_P1;PMS_P2;Temp;Humidity;BMP_temperature;BMP_pressure;BME280_temperature;BME280_humidity;BME280_pressure;Samples;Min_cycle;Max_cycle;Signal;HPM_P1;HPM_P2
2021/05/02 00:01:43;;;;;;;18.67;12.82;;;;;;;14.96;91.55;98531.09;1812771;79;21099;-60
2021/05/02 00:04:12;;;;;;;15.70;12.30;;;;;;;14.94;91.65;98525.91;1813057;79;21134;-60
2021/05/02 00:06:40;;;;;;;17.40;13.72;;;;;;;14.93;91.74;98529.81;1813040;78;21146;-60
2021/05/02 00:09:09;;;;;;;17.32;12.68;;;;;;;14.92;91.88;98521.17;1812753;78;21135;-57
2021/05/02 00:11:37;;;;;;;17.30;12.35;;;;;;;14.91;91.86;98523.36;1812745;79;21312;-60
2021/05/02 00:14:06;;;;;;;17.90;12.98;;;;;;;14.89;91.87;98514.72;1812738;78;21096;-64
2021/05/02 00:16:37;;;;;;;19.00;13.25;;;;;;;14.88;92.07;98506.94;1812727;78;21138;-61
2021/05/02 00:19:11;;;;;;;19.87;13.18;;;;;;;14.85;92.19;98507.84;1812910;78;21138;-60
2021/05/02 00:21:39;;;;;;;14.45;11.88;;;;;;;14.82;92.27;98509.63;1812885;78;21139;-56
2021/05/02 00:24:09;;;;;;;18.25;14.50;;;;;;;14.81;91.92;98506.18;1812954;78;21218;-58
2021/05/02 00:26:37;;;;;;;18.77;14.18;;;;;;;14.78;92.31;98495.80;1812709;78;21283;-54
2021/05/02 00:29:09;;;;;;;15.50;10.85;;;;;;;14.71;92.72;98491.16;1812744;79;21123;-58
2021/05/02 00:31:42;;;;;;;16.42;12.33;;;;;;;14.67;92.72;98485.56;1812874;78;21569;-58
2021/05/02 00:34:13;;;;;;;17.48;13.35;;;;;;;14.71;92.99;98495.50;1812917;78;21138;-56
2021/05/02 00:36:41;;;;;;;;;;;;;;;14.68;93.24;98492.50;1815387;79;21147;-57
2021/05/02 00:39:08;;;;;;;20.25;12.10;;;;;;;14.66;93.29;98487.76;1812961;79;20135;-58
2021/05/02 00:41:41;;;;;;;16.30;11.80;;;;;;;14.65;93.53;98486.47;1812975;78;21536;-59
2021/05/02 00:44:14;;;;;;;16.43;11.57;;;;;;;14.67;93.48;98483.42;1812959;79;21139;-57
2021/05/02 00:46:59;;;;;;;21.35;12.50;;;;;;;14.67;93.40;98474.33;1812357;78;21139;-56
2021/05/02 00:49:38;;;;;;;17.75;11.95;;;;;;;14.67;93.49;98478.22;1812212;78;21143;-59
2021/05/02 00:52:13;;;;;;;15.83;10.90;;;;;;;14.63;93.67;98468.33;1812964;78;21127;-57
2021/05/02 00:54:50;;;;;;;15.23;10.08;;;;;;;14.63;93.77;98462.25;1812666;78;21174;-60
2021/05/02 00:57:41;;;;;;;16.82;10.90;;;;;;;14.61;94.05;98464.03;1813022;78;21531;-57
2021/05/02 01:00:12;;;;;;;16.90;10.72;;;;;;;14.61;94.22;98464.03;1810916;78;21273;-61
2021/05/02 01:02:42;;;;;;;15.85;11.20;;;;;;;14.58;94.50;98462.75;1812998;78;21123;-61
2021/05/02 01:05:12;;;;;;;13.93;10.48;;;;;;;14.56;94.68;98465.39;1812858;78;21285;-63
2021/05/02 01:07:43;;;;;;;15.72;10.95;;;;;;;14.52;94.96;98458.03;1812749;79;21221;-60
2021/05/02 01:10:18;;;;;;;17.37;10.88;;;;;;;14.49;95.12;98461.11;1812809;79;21135;-61
2021/05/02 01:12:50;;;;;;;15.78;10.35;;;;;;;14.46;95.45;98454.22;1812940;78;21103;-60
2021/05/02 01:15:25;;;;;;;12.98;9.08;;;;;;;14.43;95.67;98451.67;1812955;78;21508;-61
2021/05/02 01:18:00;;;;;;;13.22;9.43;;;;;;;14.43;95.85;98458.16;1812886;79;21134;-60
2021/05/02 01:20:30;;;;;;;11.90;8.70;;;;;;;14.44;95.86;98459.87;1812675;78;21281;-59
2021/05/02 01:23:04;;;;;;;13.75;9.03;;;;;;;14.44;95.93;98457.72;1812892;79;21130;-63
2021/05/02 01:25:32;;;;;;;11.45;8.68;;;;;;;14.43;95.96;98452.13;1801998;79;21135;-58
2021/05/02 01:28:01;;;;;;;11.22;8.28;;;;;;;14.44;95.96;98448.63;1812934;78;21131;-60
2021/05/02 01:30:29;;;;;;;14.63;9.38;;;;;;;14.44;96.01;98454.67;1774375;80;21131;-57
2021/05/02 01:32:58;;;;;;;12.55;7.78;;;;;;;14.44;96.03;98450.78;1821624;78;21150;-59
2021/05/02 01:35:26;;;;;;;10.80;8.20;;;;;;;14.44;95.96;98453.83;1821530;77;21126;-56
2021/05/02 01:37:55;;;;;;;11.60;7.62;;;;;;;14.46;95.95;98454.67;1821569;79;21154;-62
2021/05/02 01:40:23;;;;;;;10.65;7.67;;;;;;;14.46;95.92;98452.07;1821350;78;21130;-61
2021/05/02 01:42:50;;;;;;;11.95;7.83;;;;;;;14.46;95.81;98450.33;1821544;78;21244;-63
2021/05/02 01:45:18;;;;;;;11.65;7.28;;;;;;;14.45;95.92;98442.55;1821399;79;21273;-59
2021/05/02 01:47:52;;;;;;;10.75;7.53;;;;;;;14.43;95.99;98447.78;1821178;79;21126;-61
2021/05/02 01:50:19;;;;;;;9.93;7.10;;;;;;;14.42;96.05;98444.74;1821441;79;21139;-61
2021/05/02 01:52:51;;;;;;;12.15;8.78;;;;;;;14.42;96.06;98445.19;1821401;77;21131;-55
2021/05/02 01:55:21;;;;;;;10.45;6.60;;;;;;;14.40;96.33;98438.73;1821636;79;21111;-60
2021/05/02 01:57:52;;;;;;;10.20;7.15;;;;;;;14.40;96.33;98438.73;1821454;79;21560;-60
2021/05/02 02:00:43;;;;;;;12.15;7.28;;;;;;;14.39;96.27;98441.34;1782410;80;21122;-56
2021/05/02 02:03:12;;;;;;;13.40;7.50;;;;;;;14.37;96.38;98430.97;1821650;79;21115;-58
2021/05/02 02:05:41;;;;;;;9.95;7.62;;;;;;;14.38;96.33;98422.77;1782419;80;21284;-58
2021/05/02 02:08:10;;;;;;;8.78;6.15;;;;;;;14.34;96.46;98425.38;1821224;78;21289;-59
2021/05/02 02:10:39;;;;;;;11.85;7.25;;;;;;;14.35;96.45;98421.06;1821613;79;21269;-57
2021/05/02 02:13:13;;;;;;;10.78;7.37;;;;;;;14.34;96.52;98421.92;1782506;80;21138;-59
2021/05/02 02:15:41;;;;;;;9.48;7.12;;;;;;;14.34;96.57;98431.01;1821263;77;21126;-57
2021/05/02 02:18:11;;;;;;;7.80;5.80;;;;;;;14.33;96.58;98428.86;1821382;77;21154;-59
2021/05/02 02:20:46;;;;;;;11.08;7.22;;;;;;;14.34;96.60;98425.38;1821250;79;21131;-59
2021/05/02 02:23:28;;;;;;;9.85;6.65;;;;;;;14.36;96.61;98427.11;1821470;79;21290;-59
2021/05/02 02:26:13;;;;;;;12.43;6.83;;;;;;;14.34;96.65;98421.92;1821564;77;21139;-59
2021/05/02 02:28:42;;;;;;;11.55;7.00;;;;;;;14.33;96.75;98424.97;1804706;77;21126;-60
2021/05/02 02:31:12;;;;;;;11.70;6.85;;;;;;;14.33;96.81;98416.33;1781183;80;21150;-58
2021/05/02 02:33:42;;;;;;;8.70;6.42;;;;;;;14.32;96.81;98415.89;1812658;78;21135;-61
2021/05/02 02:36:13;;;;;;;9.15;6.50;;;;;;;14.27;96.96;98418.56;1812824;79;21154;-59
2021/05/02 02:38:44;;;;;;;9.60;6.03;;;;;;;14.26;97.16;98415.98;1812885;79;21546;-60
2021/05/02 02:41:16;;;;;;;10.93;6.22;;;;;;;14.24;97.20;98412.54;1774414;81;21158;-59
2021/05/02 02:43:58;;;;;;;11.85;6.83;;;;;;;14.24;97.33;98409.95;1813049;79;21269;-58
2021/05/02 02:46:27;;;;;;;10.23;6.70;;;;;;;14.23;97.24;98401.75;1812812;79;21229;-57
2021/05/02 02:48:58;;;;;;;10.15;6.83;;;;;;;14.22;97.41;98401.31;1774117;79;21214;-57
2021/05/02 02:51:28;;;;;;;10.88;6.35;;;;;;;14.20;97.47;98394.02;1812648;79;21212;-59
2021/05/02 02:53:59;;;;;;;10.35;6.22;;;;;;;14.18;97.53;98394.47;1774245;81;21367;-59
2021/05/02 02:56:30;;;;;;;10.27;6.43;;;;;;;14.16;97.67;98384.09;1812912;79;21209;-59
2021/05/02 02:59:05;;;;;;;14.33;6.03;;;;;;;14.15;97.72;98393.22;1812915;79;21214;-58
2021/05/02 03:01:37;;;;;;;11.30;5.83;;;;;;;14.15;97.73;98398.41;1812599;78;21253;-61
2021/05/02 03:04:08;;;;;;;8.18;5.87;;;;;;;14.15;97.74;98399.70;1812873;79;21162;-61
2021/05/02 03:06:37;;;;;;;8.63;5.78;;;;;;;14.16;97.79;98404.00;1813062;78;21526;-60
2021/05/02 03:09:07;;;;;;;9.10;5.53;;;;;;;14.15;97.76;98406.19;1774547;81;21272;-63
2021/05/02 03:11:34;;;;;;;10.03;6.70;;;;;;;14.15;97.84;98412.23;1813069;79;21552;-60
2021/05/02 03:14:03;;;;;;;7.60;5.50;;;;;;;14.16;97.83;98414.38;1812791;79;21143;-59
2021/05/02 03:16:34;;;;;;;9.43;6.72;;;;;;;14.16;97.88;98415.23;1774312;81;21138;-59
2021/05/02 03:19:28;;;;;;;7.78;5.60;;;;;;;14.18;97.85;98397.06;1813129;78;21143;-58
2021/05/02 03:22:12;;;;;;;11.60;6.05;;;;;;;14.20;97.83;98403.09;1812801;78;21139;-57
2021/05/02 03:24:47;;;;;;;9.33;5.40;;;;;;;14.22;97.66;98396.12;1812940;78;21115;-58
2021/05/02 03:27:26;;;;;;;8.03;5.37;;;;;;;14.24;97.61;98399.56;1801802;79;21174;-54
2021/05/02 03:29:58;;;;;;;9.98;5.67;;;;;;;14.23;97.59;98393.52;1813108;78;21266;-57
2021/05/02 03:32:30;;;;;;;;;;;;;;;14.27;97.44;98402.11;1823500;77;21166;-59
2021/05/02 03:35:00;;;;;;;8.43;5.15;;;;;;;14.31;97.32;98401.20;1827275;78;20236;-63
2021/05/02 03:37:32;;;;;;;8.75;5.35;;;;;;;14.32;97.20;98397.72;1788380;79;21280;-45
2021/05/02 03:40:02;;;;;;;7.45;5.08;;;;;;;14.38;96.94;98397.66;1769184;81;21578;-67
2021/05/02 03:42:34;;;;;;;8.80;5.08;;;;;;;14.51;96.35;98406.13;1757637;81;21555;-57
2021/05/02 03:45:05;;;;;;;9.38;5.47;;;;;;;14.53;96.18;98413.06;1744243;81;21123;-61
2021/05/02 03:47:33;;;;;;;11.53;5.55;;;;;;;14.49;96.23;98410.48;1757516;82;21768;-58
2021/05/02 03:50:01;;;;;;;9.83;6.05;;;;;;;14.49;96.28;98419.12;1769169;81;21554;-57
2021/05/02 03:52:28;;;;;;;8.85;5.28;;;;;;;14.49;96.24;98408.73;1757271;82;21141;-55
2021/05/02 03:54:56;;;;;;;9.35;5.85;;;;;;;14.53;96.09;98403.97;1769042;81;21293;-57
2021/05/02 03:57:24;;;;;;;8.90;6.00;;;;;;;14.59;95.92;98411.25;1757424;80;21186;-58
2021/05/02 03:59:52;;;;;;;8.35;5.70;;;;;;;14.61;95.71;98412.09;1769054;81;21147;-57
2021/05/02 04:02:19;;;;;;;12.03;5.78;;;;;;;14.60;95.67;98403.87;1757473;80;21520;-57
2021/05/02 04:04:47;;;;;;;9.70;5.40;;;;;;;14.58;95.74;98399.13;1769076;81;21175;-60
2021/05/02 04:07:15;;;;;;;9.38;5.78;;;;;;;14.59;95.62;98399.56;1757255;80;21125;-60
2021/05/02 04:09:49;;;;;;;9.15;5.78;;;;;;;14.60;95.62;98396.08;1768846;81;21325;-60
2021/05/02 04:12:19;;;;;;;7.90;5.22;;;;;;;14.63;95.54;98392.13;1757404;80;21126;-61
2021/05/02 04:14:47;;;;;;;8.15;5.50;;;;;;;14.69;95.37;98394.66;1769115;81;21165;-61
2021/05/02 04:17:16;;;;;;;8.55;5.47;;;;;;;14.72;95.19;98395.91;1757362;82;21146;-60
2021/05/02 04:19:48;;;;;;;7.40;4.92;;;;;;;14.74;94.99;98387.66;1768910;81;21242;-61
2021/05/02 04:22:17;;;;;;;10.57;5.63;;;;;;;14.78;94.89;98391.05;1730384;82;21240;-59
2021/05/02 04:24:51;;;;;;;11.88;6.10;;;;;;;14.80;94.63;98379.76;1768080;81;21581;-64
2021/05/02 04:27:17;;;;;;;8.00;5.83;;;;;;;14.85;94.36;98396.12;1747580;81;21153;-60
2021/05/02 04:29:44;;;;;;;8.60;5.28;;;;;;;14.85;94.18;98388.34;1749307;81;21589;-64
2021/05/02 04:32:12;;;;;;;12.60;5.78;;;;;;;14.85;94.25;98385.73;1746159;81;21303;-62
2021/05/02 04:34:40;;;;;;;9.20;4.87;;;;;;;14.88;94.14;98388.31;1795172;79;21168;-62
2021/05/02 04:37:08;;;;;;;17.65;5.45;;;;;;;14.91;93.84;98373.97;1796896;79;21165;-62
2021/05/02 04:39:37;;;;;;;8.55;5.85;;;;;;;14.93;93.79;98373.52;1802847;79;21285;-57
2021/05/02 04:42:06;;;;;;;10.03;4.95;;;;;;;14.98;93.66;98372.11;1812793;79;21313;-59
2021/05/02 04:44:34;;;;;;;9.48;5.35;;;;;;;15.02;93.46;98367.74;1812689;79;21343;-61
2021/05/02 04:47:02;;;;;;;10.18;5.37;;;;;;;15.07;93.26;98373.72;1812667;78;21242;-61
2021/05/02 04:49:30;;;;;;;9.13;5.90;;;;;;;15.11;92.58;98383.16;1812905;78;21131;-62
2021/05/02 04:51:58;;;;;;;8.85;5.72;;;;;;;15.17;92.80;98374.83;1812886;79;21151;-60
2021/05/02 04:54:25;;;;;;;9.03;5.42;;;;;;;15.22;92.55;98394.25;1812673;78;21111;-59
2021/05/02 04:56:53;;;;;;;7.75;5.17;;;;;;;15.25;92.22;98389.45;1812711;79;21149;-61
2021/05/02 04:59:20;;;;;;;8.15;5.17;;;;;;;15.23;92.13;98384.70;1812693;79;21166;-63
2021/05/02 05:01:48;;;;;;;8.13;5.35;;;;;;;15.26;92.01;98388.09;1812936;79;21266;-63
2021/05/02 05:04:16;;;;;;;10.30;5.40;;;;;;;15.32;91.93;98391.91;1813066;79;21127;-61
2021/05/02 05:06:44;;;;;;;9.80;5.58;;;;;;;15.39;91.80;98389.62;1812999;78;21689;-64
2021/05/02 05:09:12;;;;;;;7.90;5.40;;;;;;;15.49;91.34;98386.39;1812877;78;21091;-65
2021/05/02 05:11:39;;;;;;;11.15;5.40;;;;;;;15.53;91.05;98385.46;1812861;79;21142;-61
2021/05/02 05:14:06;;;;;;;10.23;5.20;;;;;;;15.55;90.88;98395.85;1812768;78;21269;-61
2021/05/02 05:16:36;;;;;;;10.35;5.45;;;;;;;15.53;90.84;98382.01;1812747;78;21573;-61
2021/05/02 05:19:03;;;;;;;8.60;5.15;;;;;;;15.58;90.96;98377.58;1813033;79;21135;-63
2021/05/02 05:21:31;;;;;;;10.72;6.05;;;;;;;15.69;90.28;98393.86;1812888;78;21147;-61
2021/05/02 05:23:59;;;;;;;12.78;5.97;;;;;;;15.70;89.89;98374.78;1812787;78;21300;-62
2021/05/02 05:26:28;;;;;;;10.23;5.70;;;;;;;15.76;89.66;98391.56;1813006;79;21135;-61
2021/05/02 05:28:55;;;;;;;8.30;4.62;;;;;;;15.77;89.43;98386.80;1812822;78;21167;-62
2021/05/02 05:31:23;;;;;;;7.87;5.08;;;;;;;15.81;89.46;98391.03;1812787;78;21131;-59
2021/05/02 05:33:52;;;;;;;11.68;4.97;;;;;;;15.92;89.07;98383.45;1807436;78;21715;-61
2021/05/02 05:36:23;;;;;;;9.50;6.28;;;;;;;16.10;88.34;98381.78;1797162;78;21111;-60
2021/05/02 05:38:51;;;;;;;11.40;5.37;;;;;;;16.16;88.00;98372.55;1780953;80;21135;-59
2021/05/02 05:41:19;;;;;;;9.35;5.33;;;;;;;16.17;87.45;98377.31;1780876;79;21237;-62
2021/05/02 05:43:46;;;;;;;8.10;5.15;;;;;;;16.19;87.69;98376.39;1780860;79;21139;-63
2021/05/02 05:46:14;;;;;;;9.75;5.65;;;;;;;16.27;87.38;98373.17;1780942;79;21289;-63
2021/05/02 05:48:42;;;;;;;12.60;5.50;;;;;;;16.37;86.90;98384.25;1780816;80;21293;-59
2021/05/02 05:51:10;;;;;;;8.45;5.33;;;;;;;16.52;86.56;98379.16;1780986;79;21273;-61
2021/05/02 05:53:38;;;;;;;8.15;5.30;;;;;;;16.67;85.71;98387.08;1781024;79;21719;-60
2021/05/02 05:56:06;;;;;;;8.80;5.33;;;;;;;16.75;85.71;98373.41;1794674;79;21573;-63
2021/05/02 05:58:34;;;;;;;7.62;5.60;;;;;;;16.98;84.38;98365.08;1813117;78;21554;-61
2021/05/02 06:01:02;;;;;;;10.05;5.50;;;;;;;17.05;83.69;98366.64;1797140;78;21276;-61
2021/05/02 06:03:30;;;;;;;12.35;5.60;;;;;;;17.03;83.89;98365.82;1743806;81;21563;-64
2021/05/02 06:05:58;;;;;;;9.85;5.62;;;;;;;17.04;83.90;98361.00;1738674;81;21684;-63
2021/05/02 06:08:25;;;;;;;11.48;5.95;;;;;;;17.19;83.36;98359.77;1801406;78;21134;-62
2021/05/02 06:10:53;;;;;;;11.63;5.95;;;;;;;17.13;82.88;98368.61;1798729;79;21269;-61
2021/05/02 06:13:20;;;;;;;11.48;6.00;;;;;;;16.95;83.51;98362.55;1795141;79;21194;-58
2021/05/02 06:15:48;;;;;;;9.38;5.78;;;;;;;17.00;83.71;98355.47;1796149;78;21242;-61
2021/05/02 06:18:15;;;;;;;12.95;5.50;;;;;;;17.27;82.89;98355.20;1798071;78;21096;-61
2021/05/02 06:20:42;;;;;;;10.03;5.20;;;;;;;17.49;82.21;98358.11;1794127;78;21249;-63
2021/05/02 06:23:10;;;;;;;7.83;5.90;;;;;;;17.47;81.80;98348.62;1796997;78;21273;-60
2021/05/02 06:25:37;;;;;;;10.40;5.83;;;;;;;17.46;81.52;98359.50;1794819;79;21260;-61
2021/05/02 06:28:05;;;;;;;7.65;5.47;;;;;;;17.36;81.84;98371.92;1797139;79;21276;-61
2021/05/02 06:30:32;;;;;;;12.07;5.70;;;;;;;17.25;82.06;98377.88;1797567;78;21288;-60
2021/05/02 06:33:01;;;;;;;12.80;6.00;;;;;;;17.32;82.28;98360.30;1794852;79;21664;-61
2021/05/02 06:35:29;;;;;;;8.60;5.53;;;;;;;17.32;81.50;98366.38;1783117;79;21369;-62
2021/05/02 06:37:57;;;;;;;10.15;6.08;;;;;;;17.17;81.97;98360.70;1780985;80;21107;-62
2021/05/02 06:40:25;;;;;;;11.73;5.65;;;;;;;17.21;82.45;98355.83;1780956;80;21382;-61
2021/05/02 06:42:53;;;;;;;9.80;5.33;;;;;;;17.22;82.53;98348.40;1780848;79;21166;-63
2021/05/02 06:45:20;;;;;;;11.12;5.85;;;;;;;17.38;82.32;98348.42;1781004;80;21304;-59
2021/05/02 06:47:48;;;;;;;11.25;5.78;;;;;;;17.49;81.26;98348.98;1780945;79;21146;-62
2021/05/02 06:50:17;;;;;;;11.15;6.72;;;;;;;17.50;81.26;98349.41;1780977;79;21284;-60
2021/05/02 06:52:44;;;;;;;10.95;6.28;;;;;;;17.42;81.38;98366.99;1781125;79;21285;-59
2021/05/02 06:55:12;;;;;;;8.93;5.72;;;;;;;17.26;81.87;98370.91;1781054;80;21284;-61
2021/05/02 06:57:40;;;;;;;10.43;6.53;;;;;;;17.31;81.81;98376.41;1793342;79;21127;-61
2021/05/02 07:00:08;;;;;;;11.10;6.55;;;;;;;17.38;81.45;98367.98;1808354;79;21289;-62
2021/05/02 07:02:35;;;;;;;12.35;6.70;;;;;;;17.33;81.62;98368.55;1796947;78;21257;-61
2021/05/02 07:05:04;;;;;;;13.65;8.05;;;;;;;17.20;81.96;98361.92;1789486;79;21131;-63
2021/05/02 07:07:31;;;;;;;9.83;6.65;;;;;;;17.11;82.59;98400.83;1786427;79;21135;-61
2021/05/02 07:09:59;;;;;;;9.18;6.35;;;;;;;17.03;82.71;98364.52;1794180;79;21285;-64
2021/05/02 07:12:26;;;;;;;9.98;5.90;;;;;;;17.00;83.14;98370.27;1755924;81;21287;-62
2021/05/02 07:14:53;;;;;;;13.53;7.05;;;;;;;16.95;83.54;98377.34;1735004;81;21146;-66
2021/05/02 07:17:21;;;;;;;12.03;7.20;;;;;;;17.00;83.69;98382.84;1794080;78;21641;-61
2021/05/02 07:19:50;;;;;;;13.62;7.50;;;;;;;17.10;83.61;98383.48;1809243;78;21304;-59
2021/05/02 07:22:19;;;;;;;14.30;6.95;;;;;;;17.21;83.19;98382.75;1813020;79;21234;-61
2021/05/02 07:24:49;;;;;;;12.05;6.42;;;;;;;17.26;82.90;98392.63;1812952;78;21143;-62
2021/05/02 07:27:17;;;;;;;14.95;7.75;;;;;;;17.20;82.85;98386.69;1811942;78;21249;-63
2021/05/02 07:29:45;;;;;;;16.80;8.33;;;;;;;17.19;83.12;98386.30;1797841;79;21142;-59
2021/05/02 07:32:13;;;;;;;16.25;8.30;;;;;;;17.31;82.88;98385.98;1797998;79;21111;-59
2021/05/02 07:34:41;;;;;;;13.85;8.50;;;;;;;17.45;82.32;98372.58;1795169;79;21293;-61
2021/05/02 07:37:11;;;;;;;13.93;8.73;;;;;;;17.55;81.77;98377.53;1797708;78;21506;-62
2021/05/02 07:39:41;;;;;;;16.57;9.50;;;;;;;17.47;80.82;98379.92;1797517;79;21142;-61
2021/05/02 07:42:09;;;;;;;14.47;8.45;;;;;;;17.32;81.41;98368.98;1795068;78;21840;-61
2021/05/02 07:44:36;;;;;;;14.65;8.80;;;;;;;17.58;81.29;98363.55;1798080;79;21142;-62
2021/05/02 07:47:04;;;;;;;14.73;8.35;;;;;;;18.07;80.39;98373.95;1794159;79;21154;-61
2021/05/02 07:49:33;;;;;;;16.85;9.18;;;;;;;18.27;78.79;98363.35;1796155;79;21185;-61
2021/05/02 07:52:00;;;;;;;14.13;9.20;;;;;;;18.37;77.61;98355.22;1796851;78;21530;-62
2021/05/02 07:54:29;;;;;;;15.35;9.55;;;;;;;18.46;77.30;98368.89;1798417;78;21154;-62
2021/05/02 07:56:57;;;;;;;14.73;9.68;;;;;;;18.40;76.65;98351.20;1798462;79;21143;-60
2021/05/02 07:59:24;;;;;;;17.70;10.25;;;;;;;18.19;77.03;98347.91;1797622;79;21095;-61
2021/05/02 08:01:52;;;;;;;14.83;8.58;;;;;;;17.85;78.04;98358.03;1795154;79;21135;-60
2021/05/02 08:04:19;;;;;;;15.30;9.55;;;;;;;17.56;79.30;98366.19;1799643;78;21296;-61
2021/05/02 08:06:47;;;;;;;13.25;9.38;;;;;;;17.51;79.94;98361.55;1795374;79;21138;-60
2021/05/02 08:09:15;;;;;;;17.57;9.95;;;;;;;17.47;80.26;98360.36;1786489;78;21113;-60
2021/05/02 08:11:43;;;;;;;16.50;9.98;;;;;;;17.50;80.57;98349.83;1782825;79;21555;-60
2021/05/02 08:14:10;;;;;;;17.95;10.20;;;;;;;17.58;80.31;98346.14;1782816;79;21136;-59
2021/05/02 08:16:40;;;;;;;19.23;9.98;;;;;;;17.57;80.03;98343.55;1794970;79;21152;-60
2021/05/02 08:19:11;;;;;;;15.32;9.60;;;;;;;17.51;80.25;98350.26;1800361;78;21579;-61
2021/05/02 08:21:39;;;;;;;17.07;10.28;;;;;;;17.45;80.74;98357.78;1798483;79;21143;-62
2021/05/02 08:24:08;;;;;;;15.08;10.18;;;;;;;17.53;80.53;98349.32;1798057;79;21142;-61
2021/05/02 08:26:35;;;;;;;15.70;10.90;;;;;;;17.63;80.24;98337.31;1794302;79;21099;-63
2021/05/02 08:29:03;;;;;;;17.95;11.28;;;;;;;17.64;80.02;98332.06;1795575;78;21123;-63
2021/05/02 08:31:31;;;;;;;22.67;11.38;;;;;;;17.66;80.12;98330.73;1798179;78;21110;-63
2021/05/02 08:33:59;;;;;;;23.80;12.13;;;;;;;17.76;79.92;98334.33;1803732;78;21545;-60
2021/05/02 08:36:27;;;;;;;25.52;12.63;;;;;;;17.94;79.51;98335.59;1809021;78;21687;-62
2021/05/02 08:38:55;;;;;;;24.23;14.05;;;;;;;18.10;78.92;98324.24;1811657;78;21691;-61
2021/05/02 08:41:22;;;;;;;18.12;12.33;;;;;;;18.18;78.14;98327.93;1812126;77;21253;-61
2021/05/02 08:43:55;;;;;;;22.35;13.30;;;;;;;18.24;77.42;98321.20;1772899;79;21283;-63
2021/05/02 08:46:24;;;;;;;18.70;12.98;;;;;;;18.31;77.23;98330.56;1751753;81;21107;-62
2021/05/02 08:48:52;;;;;;;17.98;13.13;;;;;;;18.33;77.12;98332.69;1746234;81;21133;-57
2021/05/02 08:51:22;;;;;;;20.68;13.58;;;;;;;18.36;76.80;98326.52;1742860;82;21524;-69
2021/05/02 08:53:51;;;;;;;23.10;12.15;;;;;;;18.32;76.78;98321.85;1747381;81;21547;-67
2021/05/02 08:56:19;;;;;;;20.25;13.22;;;;;;;18.19;77.30;98321.80;1741835;82;21552;-64
2021/05/02 08:58:46;;;;;;;22.07;14.47;;;;;;;18.00;78.02;98324.11;1749400;81;21724;-69
2021/05/02 09:01:14;;;;;;;26.52;15.43;;;;;;;17.82;78.38;98315.06;1739924;82;21715;-68
2021/05/02 09:03:46;;;;;;;18.95;13.78;;;;;;;17.80;78.88;98314.23;1759156;80;21163;-69
2021/05/02 09:06:27;;;;;;;29.45;16.65;;;;;;;17.82;78.94;98311.59;1741025;82;21303;-67
2021/05/02 09:09:07;;;;;;;28.05;16.10;;;;;;;17.87;78.78;98300.13;1747341;81;21099;-67
2021/05/02 09:11:42;;;;;;;22.82;14.33;;;;;;;17.92;78.64;98313.05;1750187;81;21178;-68
2021/05/02 09:14:24;;;;;;;25.95;15.83;;;;;;;17.96;78.44;98299.86;1749043;81;21162;-68
2021/05/02 09:17:10;;;;;;;28.75;13.55;;;;;;;18.05;78.22;98300.48;1754918;81;21155;-70
2021/05/02 09:19:36;;;;;;;25.88;14.65;;;;;;;18.13;77.96;98298.48;1760327;80;21130;-66
2021/05/02 09:22:12;;;;;;;24.07;15.13;;;;;;;18.23;77.77;98288.16;1736558;80;21118;-64
2021/05/02 09:24:41;;;;;;;19.70;14.75;;;;;;;18.37;77.29;98288.60;1754099;80;21596;-68
2021/05/02 09:27:16;;;;;;;23.50;14.85;;;;;;;18.48;76.93;98290.87;1769884;80;21549;-67
2021/05/02 09:29:46;;;;;;;24.27;14.40;;;;;;;18.59;76.52;98290.06;1788827;80;21573;-66
2021/05/02 09:32:15;;;;;;;21.23;14.20;;;;;;;18.69;76.19;98283.23;1788883;80;21210;-67
2021/05/02 09:34:51;;;;;;;18.95;14.15;;;;;;;18.73;76.02;98281.78;1769781;80;21167;-64
2021/05/02 09:37:22;;;;;;;23.35;15.30;;;;;;;18.58;75.85;98288.82;1818652;79;21134;-68
2021/05/02 09:39:55;;;;;;;25.57;14.90;;;;;;;18.54;75.96;98289.35;1817146;79;21102;-67
2021/05/02 09:42:35;;;;;;;27.80;15.30;;;;;;;18.55;75.95;98281.94;1813905;77;21106;-66
2021/05/02 09:45:02;;;;;;;25.02;16.02;;;;;;;18.46;76.02;98289.20;1817885;77;21148;-69
2021/05/02 09:47:35;;;;;;;26.42;16.95;;;;;;;18.11;77.01;98284.16;1817996;77;21164;-67
2021/05/02 09:50:22;;;;;;;25.52;16.00;;;;;;;17.85;78.27;98278.42;1818632;79;21267;-66
2021/05/02 09:53:03;;;;;;;24.20;17.00;;;;;;;17.74;79.05;98267.42;1818506;78;21126;-66
2021/05/02 09:55:36;;;;;;;28.02;16.50;;;;;;;17.76;79.61;98272.16;1815284;77;21275;-67
2021/05/02 09:58:17;;;;;;;21.90;15.85;;;;;;;17.67;80.03;98273.71;1787647;79;21121;-78
2021/05/02 10:00:54;;;;;;;26.27;14.63;;;;;;;17.52;80.94;98269.32;1814383;79;21311;-72
2021/05/02 10:03:25;;;;;;;27.37;15.48;;;;;;;17.45;81.23;98265.17;1818463;79;21256;-68
2021/05/02 10:06:02;;;;;;;27.43;17.23;;;;;;;17.46;82.03;98256.47;1819017;77;21521;-71
2021/05/02 10:12:29;;;;;;;25.45;16.32;;;;;;;17.47;82.36;98268.59;1853372;77;22163;-76
2021/05/02 10:14:58;;;;;;;19.17;14.50;;;;;;;17.35;83.00;98261.98;1825722;78;21739;-72
2021/05/02 10:17:27;;;;;;;24.37;17.45;;;;;;;17.31;83.27;98251.68;1825699;78;21138;-70
2021/05/02 10:19:54;;;;;;;24.92;17.48;;;;;;;17.31;83.83;98267.33;1823458;78;21276;-69
2021/05/02 10:22:22;;;;;;;26.60;16.30;;;;;;;17.26;83.96;98270.51;1797607;78;21599;-66
2021/05/02 10:24:51;;;;;;;28.52;16.80;;;;;;;17.16;84.47;98271.66;1793223;80;21115;-68
2021/05/02 10:27:19;;;;;;;25.02;15.35;;;;;;;17.13;84.86;98277.80;1824541;78;21856;-65
2021/05/02 10:29:50;;;;;;;28.62;16.65;;;;;;;17.10;85.28;98281.34;1821826;78;21146;-69
2021/05/02 10:32:23;;;;;;;24.27;15.72;;;;;;;17.04;85.36;98291.07;1793444;80;21564;-72
2021/05/02 10:34:57;;;;;;;23.10;15.88;;;;;;;17.03;86.11;98290.67;1793306;80;21683;-72
2021/05/02 10:37:28;;;;;;;31.35;17.42;;;;;;;17.03;86.54;98305.02;1790383;80;21174;-73
2021/05/02 10:40:23;;;;;;;25.72;17.40;;;;;;;17.04;86.81;98302.80;1793669;80;21130;-71
2021/05/02 10:42:54;;;;;;;26.75;16.17;;;;;;;17.00;86.56;98305.95;1793378;80;21146;-72
2021/05/02 10:45:47;;;;;;;26.80;15.78;;;;;;;16.89;86.54;98313.16;1793431;80;21236;-75
2021/05/02 10:48:25;;;;;;;27.58;15.65;;;;;;;16.79;87.17;98297.34;1792708;80;21142;-71
2021/05/02 10:50:54;;;;;;;24.60;16.45;;;;;;;16.68;87.63;98303.65;1797715;78;21755;-70
2021/05/02 10:53:27;;;;;;;26.33;15.80;;;;;;;16.59;88.30;98292.59;1821707;78;21294;-72
2021/05/02 10:56:08;;;;;;;26.48;16.80;;;;;;;16.60;88.90;98276.93;1758666;81;21138;-74
2021/05/02 10:58:40;;;;;;;23.15;15.58;;;;;;;16.64;88.89;98285.09;1758653;81;21154;-71
2021/05/02 11:01:11;;;;;;;30.02;16.80;;;;;;;16.70;89.52;98271.91;1772224;81;21561;-71
2021/05/02 11:03:50;;;;;;;22.10;15.70;;;;;;;16.78;89.64;98265.23;1767003;80;21130;-71
2021/05/02 11:06:39;;;;;;;28.10;16.93;;;;;;;16.87;89.37;98252.43;1737655;82;21178;-73
2021/05/02 11:09:13;;;;;;;23.83;16.12;;;;;;;17.03;89.42;98260.24;1741300;81;21129;-71
2021/05/02 11:11:44;;;;;;;27.55;16.32;;;;;;;17.11;88.11;98249.61;1730138;82;21564;-69
2021/05/02 11:14:21;;;;;;;24.18;16.05;;;;;;;17.14;88.26;98250.38;1727672;82;21182;-69
2021/05/02 11:17:00;;;;;;;25.17;16.32;;;;;;;17.13;88.76;98235.63;1725439;82;21135;-74
2021/05/02 11:19:37;;;;;;;24.85;15.95;;;;;;;17.10;88.64;98251.82;1774040;80;21134;-73
2021/05/02 11:22:07;;;;;;;24.95;14.25;;;;;;;16.98;89.47;98260.81;1773532;80;21160;-75
2021/05/02 11:24:51;;;;;;;22.48;16.10;;;;;;;16.83;90.09;98261.21;1771192;79;21748;-73
2021/05/02 11:27:48;;;;;;;21.57;15.83;;;;;;;16.73;91.01;98263.61;1772192;80;21168;-71
2021/05/02 11:30:15;;;;;;;;;;;;;;;16.56;91.82;98246.63;1789886;79;21119;-67
2021/05/02 11:32:43;;;;;;;23.47;15.63;;;;;;;16.49;92.86;98256.36;1777960;80;20166;-63
2021/05/02 11:35:15;;;;;;;23.25;14.33;;;;;;;16.38;93.09;98252.30;1771210;79;21147;-64
2021/05/02 11:38:03;;;;;;;25.05;14.75;;;;;;;16.33;93.26;98241.13;1768387;80;21167;-66
2021/05/02 11:40:35;;;;;;;24.37;14.45;;;;;;;16.37;93.68;98244.09;1756634;80;21563;-64
2021/05/02 11:43:19;;;;;;;23.45;15.55;;;;;;;16.32;93.80;98237.68;1761949;79;21159;-63
2021/05/02 11:45:55;;;;;;;22.30;15.05;;;;;;;16.28;93.58;98235.61;1787028;80;21139;-64